DAL2816 KORD-KBOS
Flight info
| Callsign | DAL2816 |
|---|---|
| Flight time | N/A |
| Altitude | 35000 |
| Route | EBAKE WISMO POSTS PADDE SVM DKK PONCT JFUND2 |
| Aircraft | A321/M-SDE3FGHIRWY/LB1 |
Departure
| Time | 2026-05-06 21:33 |
|---|---|
| Airport | Chicago O'Hare International Airport (KORD) |
Arrival
| Time | N/A |
|---|---|
| Airport | Boston Logan International Airport (KBOS) |
| Time | Latitude | Longitude | Altitude | Speed | Heading |
|---|---|---|---|---|---|
| 2026-05-06 20:50 | 41.97595 | -87.89229 | 655 ft | 0 kts | 68° |
| 2026-05-06 21:19 | 41.97590 | -87.89243 | 655 ft | 2 kts | 68° |
| 2026-05-06 21:20 | 41.97584 | -87.89262 | 655 ft | 2 kts | 71° |
| 2026-05-06 21:20 | 41.97582 | -87.89282 | 656 ft | 2 kts | 95° |
| 2026-05-06 21:20 | 41.97585 | -87.89302 | 656 ft | 2 kts | 112° |
| 2026-05-06 21:20 | 41.97592 | -87.89320 | 656 ft | 2 kts | 130° |
| 2026-05-06 21:21 | 41.97604 | -87.89333 | 656 ft | 2 kts | 148° |
| 2026-05-06 21:21 | 41.97617 | -87.89341 | 656 ft | 1 kts | 165° |
| 2026-05-06 21:21 | 41.97623 | -87.89342 | 656 ft | 1 kts | 171° |
| 2026-05-06 21:21 | 41.97625 | -87.89343 | 656 ft | 0 kts | 169° |
| 2026-05-06 21:23 | 41.97623 | -87.89342 | 656 ft | 0 kts | 170° |
| 2026-05-06 21:23 | 41.97611 | -87.89340 | 656 ft | 3 kts | 173° |
| 2026-05-06 21:24 | 41.97575 | -87.89336 | 656 ft | 5 kts | 178° |
| 2026-05-06 21:24 | 41.97532 | -87.89336 | 656 ft | 6 kts | 179° |
| 2026-05-06 21:24 | 41.97490 | -87.89335 | 656 ft | 6 kts | 180° |
| 2026-05-06 21:24 | 41.97445 | -87.89335 | 656 ft | 6 kts | 179° |
| 2026-05-06 21:25 | 41.97399 | -87.89335 | 655 ft | 6 kts | 180° |
| 2026-05-06 21:25 | 41.97351 | -87.89335 | 655 ft | 7 kts | 179° |
| 2026-05-06 21:25 | 41.97301 | -87.89334 | 655 ft | 7 kts | 179° |
| 2026-05-06 21:25 | 41.97249 | -87.89332 | 655 ft | 7 kts | 176° |
| 2026-05-06 21:26 | 41.97202 | -87.89296 | 655 ft | 9 kts | 118° |
| 2026-05-06 21:26 | 41.97194 | -87.89193 | 655 ft | 12 kts | 90° |
| 2026-05-06 21:26 | 41.97194 | -87.89075 | 655 ft | 12 kts | 90° |
| 2026-05-06 21:26 | 41.97194 | -87.88954 | 655 ft | 13 kts | 90° |
| 2026-05-06 21:27 | 41.97194 | -87.88829 | 655 ft | 13 kts | 90° |
| 2026-05-06 21:27 | 41.97195 | -87.88701 | 655 ft | 13 kts | 90° |
| 2026-05-06 21:27 | 41.97195 | -87.88572 | 655 ft | 14 kts | 89° |
| 2026-05-06 21:27 | 41.97174 | -87.88442 | 655 ft | 14 kts | 101° |
| 2026-05-06 21:28 | 41.97171 | -87.88309 | 655 ft | 14 kts | 90° |
| 2026-05-06 21:28 | 41.97171 | -87.88192 | 654 ft | 10 kts | 88° |
| 2026-05-06 21:28 | 41.97171 | -87.88091 | 654 ft | 11 kts | 98° |
| 2026-05-06 21:28 | 41.97137 | -87.88039 | 654 ft | 2 kts | 167° |
| 2026-05-06 21:29 | 41.97124 | -87.88038 | 654 ft | 0 kts | 176° |
| 2026-05-06 21:31 | 41.97120 | -87.88037 | 654 ft | 3 kts | 176° |
| 2026-05-06 21:31 | 41.97061 | -87.88035 | 654 ft | 13 kts | 179° |
| 2026-05-06 21:31 | 41.96978 | -87.88031 | 654 ft | 9 kts | 182° |
| 2026-05-06 21:31 | 41.96926 | -87.88058 | 654 ft | 3 kts | 220° |
| 2026-05-06 21:32 | 41.96915 | -87.88071 | 655 ft | 0 kts | 221° |
| 2026-05-06 21:32 | 41.96382 | -87.88699 | 656 ft | 115 kts | 221° |
| 2026-05-06 21:32 | 41.95651 | -87.89569 | 752 ft | 155 kts | 224° |
| 2026-05-06 21:33 | 41.94857 | -87.90472 | 1415 ft | 146 kts | 226° |
| 2026-05-06 21:33 | 41.94077 | -87.91299 | 2000 ft | 143 kts | 225° |
| 2026-05-06 21:33 | 41.93283 | -87.92092 | 2467 ft | 145 kts | 225° |
| 2026-05-06 21:33 | 41.92448 | -87.92934 | 2714 ft | 155 kts | 223° |
| 2026-05-06 21:34 | 41.91513 | -87.93771 | 2948 ft | 172 kts | 205° |
| 2026-05-06 21:34 | 41.90273 | -87.93800 | 3174 ft | 194 kts | 167° |
| 2026-05-06 21:34 | 41.88973 | -87.93093 | 3444 ft | 208 kts | 158° |
| 2026-05-06 21:34 | 41.87638 | -87.92223 | 3710 ft | 221 kts | 156° |
| 2026-05-06 21:35 | 41.86211 | -87.91273 | 3942 ft | 237 kts | 156° |
| 2026-05-06 21:35 | 41.84668 | -87.90218 | 4180 ft | 257 kts | 150° |
| 2026-05-06 21:35 | 41.83354 | -87.88512 | 4480 ft | 276 kts | 120° |
| 2026-05-06 21:35 | 41.82875 | -87.86005 | 4927 ft | 285 kts | 84° |
| 2026-05-06 21:36 | 41.83443 | -87.83540 | 5583 ft | 281 kts | 54° |
| 2026-05-06 21:36 | 41.84626 | -87.81469 | 6264 ft | 281 kts | 48° |
| 2026-05-06 21:36 | 41.85839 | -87.79427 | 6880 ft | 286 kts | 49° |
| 2026-05-06 21:36 | 41.87085 | -87.77305 | 7520 ft | 290 kts | 49° |
| 2026-05-06 21:37 | 41.88324 | -87.75185 | 8134 ft | 294 kts | 49° |
| 2026-05-06 21:37 | 41.89582 | -87.73025 | 8754 ft | 298 kts | 49° |
| 2026-05-06 21:37 | 41.90863 | -87.70824 | 9362 ft | 301 kts | 49° |
| 2026-05-06 21:37 | 41.92165 | -87.68584 | 9970 ft | 305 kts | 49° |
| 2026-05-06 21:38 | 41.93475 | -87.66325 | 10445 ft | 313 kts | 49° |
| 2026-05-06 21:38 | 41.94840 | -87.63978 | 10723 ft | 328 kts | 49° |
| 2026-05-06 21:38 | 41.96261 | -87.61529 | 10992 ft | 342 kts | 49° |
| 2026-05-06 21:38 | 41.97742 | -87.58972 | 11306 ft | 354 kts | 49° |
| 2026-05-06 21:39 | 41.99268 | -87.56332 | 11795 ft | 360 kts | 49° |
| 2026-05-06 21:39 | 42.00811 | -87.53657 | 12311 ft | 366 kts | 48° |
| 2026-05-06 21:39 | 42.02384 | -87.50928 | 12802 ft | 371 kts | 48° |
| 2026-05-06 21:39 | 42.03963 | -87.48193 | 13318 ft | 376 kts | 48° |
| 2026-05-06 21:40 | 42.05587 | -87.45375 | 13757 ft | 382 kts | 48° |
| 2026-05-06 21:40 | 42.07212 | -87.42558 | 14258 ft | 387 kts | 48° |
| 2026-05-06 21:40 | 42.08871 | -87.39678 | 14852 ft | 388 kts | 48° |
| 2026-05-06 21:40 | 42.10513 | -87.36818 | 15360 ft | 391 kts | 48° |
| 2026-05-06 21:41 | 42.12186 | -87.33907 | 15816 ft | 396 kts | 49° |
| 2026-05-06 21:41 | 42.13868 | -87.30981 | 16294 ft | 400 kts | 49° |
| 2026-05-06 21:41 | 42.15584 | -87.27984 | 16731 ft | 404 kts | 49° |
| 2026-05-06 21:41 | 42.17303 | -87.24982 | 17166 ft | 408 kts | 49° |
| 2026-05-06 21:42 | 42.19025 | -87.21971 | 17591 ft | 412 kts | 49° |
| 2026-05-06 21:42 | 42.20781 | -87.18894 | 18040 ft | 415 kts | 49° |
| 2026-05-06 21:42 | 42.22548 | -87.15794 | 18452 ft | 419 kts | 49° |
| 2026-05-06 21:42 | 42.24321 | -87.12684 | 18868 ft | 423 kts | 49° |
| 2026-05-06 21:43 | 42.26102 | -87.09557 | 19226 ft | 427 kts | 51° |
| 2026-05-06 21:43 | 42.27597 | -87.06037 | 19551 ft | 436 kts | 68° |
| 2026-05-06 21:43 | 42.28311 | -87.02070 | 19956 ft | 437 kts | 86° |
| 2026-05-06 21:43 | 42.28505 | -86.98006 | 20375 ft | 438 kts | 90° |
| 2026-05-06 21:44 | 42.28601 | -86.93898 | 20748 ft | 441 kts | 91° |
| 2026-05-06 21:44 | 42.28696 | -86.89719 | 21130 ft | 444 kts | 90° |
| 2026-05-06 21:44 | 42.28816 | -86.85580 | 21482 ft | 448 kts | 90° |
| 2026-05-06 21:44 | 42.28958 | -86.81362 | 21852 ft | 451 kts | 90° |
| 2026-05-06 21:45 | 42.29111 | -86.77119 | 22211 ft | 454 kts | 90° |
| 2026-05-06 21:45 | 42.29269 | -86.72905 | 22531 ft | 458 kts | 90° |
| 2026-05-06 21:45 | 42.29435 | -86.68581 | 22850 ft | 461 kts | 89° |
| 2026-05-06 21:45 | 42.29601 | -86.64274 | 23192 ft | 464 kts | 90° |
| 2026-05-06 21:46 | 42.29763 | -86.59948 | 23519 ft | 467 kts | 90° |
| 2026-05-06 21:46 | 42.29929 | -86.55540 | 23823 ft | 471 kts | 90° |
| 2026-05-06 21:46 | 42.30094 | -86.51096 | 24125 ft | 473 kts | 90° |
| 2026-05-06 21:46 | 42.30256 | -86.46709 | 24453 ft | 476 kts | 89° |
| 2026-05-06 21:47 | 42.30419 | -86.42229 | 24745 ft | 478 kts | 89° |
| 2026-05-06 21:47 | 42.30578 | -86.37776 | 25037 ft | 481 kts | 90° |
| 2026-05-06 21:47 | 42.30740 | -86.33271 | 25305 ft | 484 kts | 90° |
| 2026-05-06 21:47 | 42.30901 | -86.28712 | 25568 ft | 487 kts | 90° |
| 2026-05-06 21:48 | 42.31062 | -86.24140 | 25812 ft | 490 kts | 91° |
| 2026-05-06 21:48 | 42.31219 | -86.19546 | 26071 ft | 493 kts | 90° |
| 2026-05-06 21:48 | 42.31372 | -86.14895 | 26302 ft | 496 kts | 90° |
| 2026-05-06 21:48 | 42.31522 | -86.10261 | 26553 ft | 498 kts | 91° |
| 2026-05-06 21:49 | 42.31544 | -86.05621 | 26801 ft | 500 kts | 94° |
| 2026-05-06 21:49 | 42.31501 | -86.00912 | 27041 ft | 502 kts | 94° |
| 2026-05-06 21:49 | 42.31435 | -85.96171 | 27284 ft | 504 kts | 94° |
| 2026-05-06 21:49 | 42.31369 | -85.91460 | 27526 ft | 507 kts | 94° |
| 2026-05-06 21:50 | 42.31302 | -85.86731 | 27732 ft | 510 kts | 94° |
| 2026-05-06 21:50 | 42.31240 | -85.81927 | 27947 ft | 513 kts | 94° |
| 2026-05-06 21:50 | 42.31177 | -85.77119 | 28186 ft | 515 kts | 95° |
| 2026-05-06 21:50 | 42.31112 | -85.72266 | 28385 ft | 518 kts | 94° |
| 2026-05-06 21:51 | 42.31044 | -85.67426 | 28574 ft | 521 kts | 94° |
| 2026-05-06 21:51 | 42.30977 | -85.62519 | 28786 ft | 523 kts | 94° |
| 2026-05-06 21:51 | 42.30913 | -85.57639 | 29037 ft | 525 kts | 94° |
| 2026-05-06 21:51 | 42.30841 | -85.52708 | 29224 ft | 528 kts | 95° |
| 2026-05-06 21:52 | 42.30765 | -85.47772 | 29418 ft | 530 kts | 95° |
| 2026-05-06 21:52 | 42.30682 | -85.42790 | 29569 ft | 533 kts | 95° |
| 2026-05-06 21:52 | 42.30599 | -85.37830 | 29760 ft | 536 kts | 94° |
| 2026-05-06 21:52 | 42.30520 | -85.32787 | 29925 ft | 539 kts | 95° |
| 2026-05-06 21:53 | 42.30438 | -85.27831 | 30110 ft | 541 kts | 95° |
| 2026-05-06 21:53 | 42.30345 | -85.22623 | 30284 ft | 542 kts | 95° |
| 2026-05-06 21:53 | 42.30258 | -85.17507 | 30451 ft | 544 kts | 96° |
| 2026-05-06 21:53 | 42.30167 | -85.12463 | 30643 ft | 545 kts | 96° |
| 2026-05-06 21:54 | 42.30067 | -85.07338 | 30784 ft | 547 kts | 95° |
| 2026-05-06 21:54 | 42.29966 | -85.02219 | 30915 ft | 550 kts | 96° |
| 2026-05-06 21:54 | 42.29851 | -84.97060 | 31083 ft | 551 kts | 95° |
| 2026-05-06 21:54 | 42.29725 | -84.91928 | 31250 ft | 552 kts | 96° |
| 2026-05-06 21:55 | 42.29599 | -84.86719 | 31464 ft | 553 kts | 95° |
| 2026-05-06 21:55 | 42.29474 | -84.81570 | 31671 ft | 553 kts | 95° |
| 2026-05-06 21:55 | 42.29343 | -84.76401 | 31828 ft | 554 kts | 95° |
| 2026-05-06 21:55 | 42.29216 | -84.71232 | 31984 ft | 556 kts | 95° |
| 2026-05-06 21:56 | 42.29083 | -84.65997 | 32207 ft | 556 kts | 96° |
| 2026-05-06 21:56 | 42.28944 | -84.60838 | 32459 ft | 554 kts | 95° |
| 2026-05-06 21:56 | 42.28801 | -84.55671 | 32701 ft | 554 kts | 95° |
| 2026-05-06 21:56 | 42.28771 | -84.50420 | 32844 ft | 557 kts | 91° |
| 2026-05-06 21:57 | 42.28996 | -84.45200 | 32977 ft | 561 kts | 85° |
| 2026-05-06 21:57 | 42.29514 | -84.39990 | 33153 ft | 563 kts | 81° |
| 2026-05-06 21:57 | 42.30233 | -84.34811 | 33322 ft | 563 kts | 79° |
| 2026-05-06 21:57 | 42.31013 | -84.29652 | 33454 ft | 564 kts | 79° |
| 2026-05-06 21:58 | 42.31791 | -84.24491 | 33583 ft | 565 kts | 79° |
| 2026-05-06 21:58 | 42.32560 | -84.19285 | 33698 ft | 566 kts | 79° |
| 2026-05-06 21:58 | 42.33301 | -84.14131 | 33805 ft | 567 kts | 79° |
| 2026-05-06 21:58 | 42.34037 | -84.08908 | 33985 ft | 567 kts | 80° |
| 2026-05-06 21:59 | 42.34767 | -84.03704 | 34190 ft | 566 kts | 80° |
| 2026-05-06 21:59 | 42.35488 | -83.98502 | 34330 ft | 567 kts | 80° |
| 2026-05-06 21:59 | 42.36210 | -83.93256 | 34449 ft | 567 kts | 79° |
| 2026-05-06 21:59 | 42.36932 | -83.88079 | 34639 ft | 566 kts | 79° |
| 2026-05-06 22:00 | 42.37655 | -83.82828 | 34849 ft | 565 kts | 80° |
| 2026-05-06 22:00 | 42.38370 | -83.77643 | 34935 ft | 565 kts | 80° |
| 2026-05-06 22:00 | 42.39797 | -83.67230 | 34939 ft | 565 kts | 80° |
| 2026-05-06 22:01 | 42.40973 | -83.56728 | 34942 ft | 564 kts | 86° |
| 2026-05-06 22:01 | 42.41426 | -83.46217 | 34942 ft | 564 kts | 89° |
| 2026-05-06 22:02 | 42.41751 | -83.35626 | 34945 ft | 564 kts | 89° |
| 2026-05-06 22:02 | 42.42099 | -83.25065 | 34945 ft | 564 kts | 90° |
| 2026-05-06 22:03 | 42.42459 | -83.14499 | 34947 ft | 565 kts | 89° |
| 2026-05-06 22:03 | 42.42811 | -83.03890 | 34943 ft | 566 kts | 89° |
| 2026-05-06 22:04 | 42.43160 | -82.93290 | 34948 ft | 565 kts | 90° |
| 2026-05-06 22:04 | 42.43491 | -82.82689 | 34948 ft | 565 kts | 90° |
| 2026-05-06 22:05 | 42.43815 | -82.72089 | 34942 ft | 566 kts | 90° |
| 2026-05-06 22:05 | 42.44128 | -82.61463 | 34943 ft | 565 kts | 89° |
| 2026-05-06 22:06 | 42.44432 | -82.50919 | 34948 ft | 566 kts | 89° |
| 2026-05-06 22:06 | 42.44582 | -82.45567 | 34806 ft | 567 kts | 89° |
| 2026-05-06 22:06 | 42.44727 | -82.40301 | 34994 ft | 567 kts | 90° |
| 2026-05-06 22:07 | 42.45018 | -82.29660 | 34862 ft | 565 kts | 91° |
| 2026-05-06 22:07 | 42.45289 | -82.19018 | 34939 ft | 567 kts | 91° |
| 2026-05-06 22:08 | 42.45551 | -82.08350 | 34945 ft | 567 kts | 90° |
| 2026-05-06 22:08 | 42.45812 | -81.97726 | 34958 ft | 568 kts | 90° |
| 2026-05-06 22:09 | 42.46057 | -81.87139 | 34945 ft | 567 kts | 90° |
| 2026-05-06 22:09 | 42.46300 | -81.76450 | 34927 ft | 567 kts | 91° |
| 2026-05-06 22:10 | 42.46527 | -81.65816 | 34960 ft | 567 kts | 90° |
| 2026-05-06 22:10 | 42.46739 | -81.55222 | 34942 ft | 568 kts | 90° |
| 2026-05-06 22:11 | 42.46947 | -81.44550 | 34935 ft | 567 kts | 90° |
| 2026-05-06 22:11 | 42.47146 | -81.33978 | 34940 ft | 568 kts | 91° |
| 2026-05-06 22:12 | 42.47334 | -81.23293 | 34933 ft | 568 kts | 91° |
| 2026-05-06 22:12 | 42.47508 | -81.12665 | 34932 ft | 569 kts | 91° |
| 2026-05-06 22:13 | 42.47683 | -81.01984 | 34930 ft | 568 kts | 91° |
| 2026-05-06 22:13 | 42.47841 | -80.91353 | 34923 ft | 567 kts | 91° |
| 2026-05-06 22:14 | 42.47988 | -80.80681 | 34924 ft | 568 kts | 91° |
| 2026-05-06 22:14 | 42.48130 | -80.70042 | 34921 ft | 568 kts | 91° |
| 2026-05-06 22:15 | 42.48251 | -80.59431 | 34918 ft | 568 kts | 91° |
| 2026-05-06 22:15 | 42.48376 | -80.48775 | 34920 ft | 567 kts | 91° |
| 2026-05-06 22:16 | 42.48480 | -80.38114 | 34916 ft | 567 kts | 91° |
| 2026-05-06 22:16 | 42.48581 | -80.27537 | 34914 ft | 568 kts | 91° |
| 2026-05-06 22:17 | 42.48670 | -80.16917 | 34908 ft | 567 kts | 92° |
| 2026-05-06 22:17 | 42.48752 | -80.06258 | 34908 ft | 567 kts | 91° |
| 2026-05-06 22:18 | 42.48821 | -79.95591 | 34909 ft | 567 kts | 91° |
| 2026-05-06 22:18 | 42.48884 | -79.84973 | 34910 ft | 565 kts | 92° |
| 2026-05-06 22:19 | 42.48927 | -79.74379 | 34916 ft | 566 kts | 91° |
| 2026-05-06 22:19 | 42.48971 | -79.63771 | 34918 ft | 565 kts | 91° |
| 2026-05-06 22:20 | 42.49001 | -79.53114 | 34922 ft | 566 kts | 91° |
| 2026-05-06 22:20 | 42.49021 | -79.42512 | 34915 ft | 566 kts | 92° |
| 2026-05-06 22:21 | 42.49034 | -79.31914 | 34911 ft | 566 kts | 92° |
| 2026-05-06 22:21 | 42.49390 | -79.21403 | 34901 ft | 566 kts | 86° |
| 2026-05-06 22:22 | 42.50152 | -79.10722 | 34895 ft | 567 kts | 85° |
| 2026-05-06 22:22 | 42.50921 | -79.00140 | 34911 ft | 568 kts | 85° |
| 2026-05-06 22:23 | 42.51662 | -78.89531 | 34915 ft | 567 kts | 85° |
| 2026-05-06 22:23 | 42.52375 | -78.78903 | 34911 ft | 568 kts | 85° |
| 2026-05-06 22:24 | 42.53077 | -78.68307 | 34901 ft | 567 kts | 85° |
| 2026-05-06 22:24 | 42.53770 | -78.57677 | 34906 ft | 566 kts | 86° |
| 2026-05-06 22:25 | 42.54445 | -78.47131 | 34893 ft | 566 kts | 85° |
| 2026-05-06 22:25 | 42.55121 | -78.36485 | 34893 ft | 567 kts | 85° |
| 2026-05-06 22:26 | 42.55782 | -78.25916 | 34888 ft | 566 kts | 86° |
| 2026-05-06 22:26 | 42.56436 | -78.15318 | 34880 ft | 566 kts | 86° |
| 2026-05-06 22:27 | 42.57074 | -78.04754 | 34881 ft | 564 kts | 86° |
| 2026-05-06 22:27 | 42.57706 | -77.94217 | 34883 ft | 565 kts | 86° |
| 2026-05-06 22:28 | 42.58326 | -77.83647 | 34893 ft | 565 kts | 86° |
| 2026-05-06 22:28 | 42.58933 | -77.73027 | 34900 ft | 564 kts | 86° |
| 2026-05-06 22:29 | 42.59536 | -77.62492 | 34891 ft | 564 kts | 86° |
| 2026-05-06 22:29 | 42.60127 | -77.51929 | 34888 ft | 563 kts | 86° |
| 2026-05-06 22:30 | 42.60710 | -77.41406 | 34883 ft | 562 kts | 86° |
| 2026-05-06 22:30 | 42.61282 | -77.30830 | 34871 ft | 562 kts | 86° |
| 2026-05-06 22:31 | 42.61845 | -77.20249 | 34879 ft | 562 kts | 87° |
| 2026-05-06 22:31 | 42.62399 | -77.09707 | 34888 ft | 561 kts | 87° |
| 2026-05-06 22:32 | 42.62935 | -76.99197 | 34887 ft | 560 kts | 87° |
| 2026-05-06 22:32 | 42.63460 | -76.88719 | 34884 ft | 560 kts | 87° |
| 2026-05-06 22:33 | 42.63982 | -76.78196 | 34884 ft | 559 kts | 87° |
| 2026-05-06 22:33 | 42.64492 | -76.67693 | 34882 ft | 559 kts | 86° |
| 2026-05-06 22:34 | 42.64992 | -76.57242 | 34882 ft | 559 kts | 86° |
| 2026-05-06 22:34 | 42.65486 | -76.46709 | 34876 ft | 559 kts | 87° |
| 2026-05-06 22:35 | 42.65966 | -76.36201 | 34878 ft | 559 kts | 87° |
| 2026-05-06 22:35 | 42.66441 | -76.25706 | 34870 ft | 559 kts | 88° |
| 2026-05-06 22:36 | 42.66898 | -76.15220 | 34864 ft | 559 kts | 88° |
| 2026-05-06 22:36 | 42.67347 | -76.04756 | 34855 ft | 558 kts | 88° |
| 2026-05-06 22:37 | 42.67790 | -75.94247 | 34858 ft | 559 kts | 88° |
| 2026-05-06 22:37 | 42.68226 | -75.83725 | 34859 ft | 558 kts | 88° |
| 2026-05-06 22:38 | 42.68645 | -75.73220 | 34851 ft | 559 kts | 87° |
| 2026-05-06 22:38 | 42.69060 | -75.62744 | 34855 ft | 558 kts | 88° |
| 2026-05-06 22:39 | 42.69461 | -75.52295 | 34860 ft | 559 kts | 88° |
| 2026-05-06 22:39 | 42.69858 | -75.41732 | 34856 ft | 558 kts | 88° |
| 2026-05-06 22:40 | 42.70245 | -75.31265 | 34845 ft | 557 kts | 88° |
| 2026-05-06 22:40 | 42.70616 | -75.20751 | 34840 ft | 558 kts | 89° |
| 2026-05-06 22:41 | 42.71158 | -75.05010 | 34835 ft | 558 kts | 88° |
| 2026-05-06 22:42 | 42.71511 | -74.94477 | 34826 ft | 558 kts | 88° |
| 2026-05-06 22:42 | 42.71854 | -74.84038 | 34822 ft | 557 kts | 89° |
| 2026-05-06 22:43 | 42.72185 | -74.73532 | 34827 ft | 556 kts | 89° |
| 2026-05-06 22:43 | 42.72504 | -74.63089 | 34814 ft | 556 kts | 89° |
| 2026-05-06 22:44 | 42.72811 | -74.52644 | 34816 ft | 556 kts | 88° |
| 2026-05-06 22:44 | 42.73115 | -74.42139 | 34822 ft | 555 kts | 88° |
| 2026-05-06 22:45 | 42.73409 | -74.31738 | 34819 ft | 554 kts | 89° |
| 2026-05-06 22:45 | 42.73691 | -74.21296 | 34817 ft | 554 kts | 89° |
| 2026-05-06 22:46 | 42.73964 | -74.10898 | 34818 ft | 553 kts | 89° |
| 2026-05-06 22:46 | 42.74225 | -74.00487 | 34815 ft | 553 kts | 89° |
| 2026-05-06 22:47 | 42.74484 | -73.90054 | 34459 ft | 553 kts | 89° |
| 2026-05-06 22:47 | 42.74604 | -73.84874 | 34082 ft | 550 kts | 89° |
| 2026-05-06 22:47 | 42.74686 | -73.79702 | 33684 ft | 546 kts | 91° |
| 2026-05-06 22:47 | 42.74678 | -73.74529 | 33271 ft | 543 kts | 92° |
| 2026-05-06 22:48 | 42.74641 | -73.69456 | 32853 ft | 542 kts | 92° |
| 2026-05-06 22:48 | 42.74594 | -73.64390 | 32448 ft | 541 kts | 92° |
| 2026-05-06 22:48 | 42.74545 | -73.59264 | 32031 ft | 539 kts | 92° |
| 2026-05-06 22:48 | 42.74497 | -73.54157 | 31622 ft | 546 kts | 92° |
| 2026-05-06 22:49 | 42.74452 | -73.49022 | 31166 ft | 550 kts | 92° |
| 2026-05-06 22:49 | 42.74408 | -73.43812 | 30689 ft | 548 kts | 92° |
| 2026-05-06 22:49 | 42.74362 | -73.38728 | 30257 ft | 543 kts | 92° |
| 2026-05-06 22:49 | 42.74314 | -73.33624 | 29825 ft | 537 kts | 93° |
| 2026-05-06 22:50 | 42.74262 | -73.28585 | 29383 ft | 531 kts | 93° |
| 2026-05-06 22:50 | 42.74210 | -73.23614 | 28961 ft | 525 kts | 93° |
| 2026-05-06 22:50 | 42.74159 | -73.18675 | 28510 ft | 519 kts | 94° |
| 2026-05-06 22:50 | 42.74079 | -73.14036 | 28095 ft | 513 kts | 95° |
| 2026-05-06 22:51 | 42.73812 | -73.09269 | 27670 ft | 505 kts | 100° |
| 2026-05-06 22:51 | 42.73341 | -73.04569 | 27223 ft | 498 kts | 102° |
| 2026-05-06 22:51 | 42.72803 | -72.99979 | 26797 ft | 492 kts | 103° |
| 2026-05-06 22:51 | 42.72251 | -72.95396 | 26354 ft | 486 kts | 103° |
| 2026-05-06 22:52 | 42.71713 | -72.90900 | 25924 ft | 481 kts | 103° |
| 2026-05-06 22:52 | 42.71187 | -72.86462 | 25494 ft | 476 kts | 103° |
| 2026-05-06 22:52 | 42.70671 | -72.82086 | 25061 ft | 470 kts | 103° |
| 2026-05-06 22:52 | 42.70153 | -72.77685 | 24629 ft | 465 kts | 103° |
| 2026-05-06 22:53 | 42.69655 | -72.73444 | 24208 ft | 460 kts | 103° |
| 2026-05-06 22:53 | 42.69149 | -72.69145 | 23767 ft | 455 kts | 103° |
| 2026-05-06 22:53 | 42.68648 | -72.64930 | 23336 ft | 450 kts | 103° |
| 2026-05-06 22:53 | 42.68154 | -72.60789 | 22904 ft | 445 kts | 103° |
| 2026-05-06 22:54 | 42.67662 | -72.56716 | 22567 ft | 438 kts | 103° |
| 2026-05-06 22:54 | 42.67169 | -72.52664 | 22238 ft | 433 kts | 104° |
| 2026-05-06 22:54 | 42.66679 | -72.48653 | 21883 ft | 431 kts | 104° |
| 2026-05-06 22:54 | 42.66189 | -72.44653 | 21379 ft | 430 kts | 104° |
| 2026-05-06 22:55 | 42.65699 | -72.40653 | 20868 ft | 429 kts | 104° |
| 2026-05-06 22:55 | 42.65207 | -72.36684 | 20363 ft | 428 kts | 104° |
| 2026-05-06 22:55 | 42.64719 | -72.32718 | 19864 ft | 426 kts | 104° |
| 2026-05-06 22:55 | 42.64247 | -72.28780 | 19365 ft | 425 kts | 104° |
| 2026-05-06 22:56 | 42.63790 | -72.24827 | 18868 ft | 424 kts | 104° |
| 2026-05-06 22:56 | 42.63337 | -72.20888 | 18373 ft | 422 kts | 104° |
| 2026-05-06 22:56 | 42.62883 | -72.16959 | 17883 ft | 420 kts | 104° |
| 2026-05-06 22:56 | 42.62430 | -72.13093 | 17400 ft | 419 kts | 104° |
| 2026-05-06 22:57 | 42.61973 | -72.09193 | 16908 ft | 418 kts | 104° |
| 2026-05-06 22:57 | 42.61518 | -72.05328 | 16433 ft | 416 kts | 104° |
| 2026-05-06 22:57 | 42.61051 | -72.01457 | 15939 ft | 415 kts | 104° |
| 2026-05-06 22:57 | 42.60580 | -71.97649 | 15452 ft | 413 kts | 105° |
| 2026-05-06 22:58 | 42.60102 | -71.93804 | 14962 ft | 412 kts | 104° |
| 2026-05-06 22:58 | 42.59628 | -71.89999 | 14475 ft | 410 kts | 104° |
| 2026-05-06 22:58 | 42.59156 | -71.86223 | 14268 ft | 400 kts | 104° |
| 2026-05-06 22:58 | 42.58700 | -71.82579 | 14089 ft | 389 kts | 105° |
| 2026-05-06 22:59 | 42.58173 | -71.78997 | 13854 ft | 381 kts | 106° |
| 2026-05-06 22:59 | 42.57620 | -71.75497 | 13455 ft | 378 kts | 107° |
| 2026-05-06 22:59 | 42.57070 | -71.72072 | 13172 ft | 373 kts | 107° |
| 2026-05-06 22:59 | 42.56520 | -71.68632 | 12737 ft | 373 kts | 107° |
| 2026-05-06 23:00 | 42.55975 | -71.65208 | 12333 ft | 372 kts | 106° |
| 2026-05-06 23:00 | 42.55434 | -71.61822 | 11982 ft | 369 kts | 106° |
| 2026-05-06 23:00 | 42.54858 | -71.58429 | 11589 ft | 366 kts | 108° |
| 2026-05-06 23:00 | 42.54197 | -71.55141 | 11231 ft | 362 kts | 109° |
| 2026-05-06 23:01 | 42.53528 | -71.51914 | 11067 ft | 353 kts | 110° |
| 2026-05-06 23:01 | 42.52866 | -71.48740 | 10898 ft | 344 kts | 110° |
| 2026-05-06 23:01 | 42.52224 | -71.45664 | 10740 ft | 335 kts | 110° |
| 2026-05-06 23:01 | 42.51604 | -71.42690 | 10579 ft | 327 kts | 111° |
| 2026-05-06 23:02 | 42.50988 | -71.39745 | 10365 ft | 322 kts | 111° |
| 2026-05-06 23:02 | 42.50382 | -71.36845 | 10070 ft | 320 kts | 111° |
| 2026-05-06 23:02 | 42.49793 | -71.33966 | 9735 ft | 319 kts | 111° |
| 2026-05-06 23:02 | 42.49219 | -71.31072 | 9427 ft | 317 kts | 111° |
| 2026-05-06 23:03 | 42.48656 | -71.28225 | 9149 ft | 314 kts | 110° |
| 2026-05-06 23:03 | 42.48088 | -71.25380 | 8850 ft | 311 kts | 110° |
| 2026-05-06 23:03 | 42.47520 | -71.22546 | 8499 ft | 310 kts | 110° |
| 2026-05-06 23:03 | 42.46965 | -71.19769 | 8202 ft | 308 kts | 111° |
| 2026-05-06 23:04 | 42.46431 | -71.16959 | 7879 ft | 308 kts | 103° |
| 2026-05-06 23:04 | 42.46563 | -71.14066 | 7499 ft | 316 kts | 72° |
| 2026-05-06 23:04 | 42.47488 | -71.11385 | 7318 ft | 309 kts | 62° |
| 2026-05-06 23:04 | 42.48492 | -71.08870 | 7168 ft | 301 kts | 62° |
| 2026-05-06 23:05 | 42.49542 | -71.06445 | 7004 ft | 294 kts | 50° |
| 2026-05-06 23:05 | 42.51112 | -71.04813 | 6836 ft | 278 kts | 19° |
| 2026-05-06 23:05 | 42.52893 | -71.03998 | 6676 ft | 268 kts | 11° |
| 2026-05-06 23:05 | 42.54678 | -71.03339 | 6442 ft | 265 kts | 9° |
| 2026-05-06 23:06 | 42.56450 | -71.02618 | 6156 ft | 265 kts | 12° |
| 2026-05-06 23:06 | 42.58176 | -71.01859 | 6004 ft | 258 kts | 13° |
| 2026-05-06 23:06 | 42.59851 | -71.01109 | 5955 ft | 244 kts | 13° |
| 2026-05-06 23:06 | 42.61432 | -71.00382 | 5592 ft | 245 kts | 13° |
| 2026-05-06 23:07 | 42.63018 | -70.99393 | 5035 ft | 258 kts | 33° |
| 2026-05-06 23:07 | 42.64130 | -70.97490 | 4618 ft | 259 kts | 67° |
| 2026-05-06 23:07 | 42.64418 | -70.95168 | 4225 ft | 250 kts | 98° |
| 2026-05-06 23:07 | 42.64204 | -70.92858 | 3853 ft | 247 kts | 106° |
| 2026-05-06 23:08 | 42.63594 | -70.90771 | 3469 ft | 230 kts | 136° |
| 2026-05-06 23:08 | 42.62417 | -70.89599 | 3264 ft | 199 kts | 168° |
| 2026-05-06 23:08 | 42.61122 | -70.89281 | 3084 ft | 180 kts | 186° |
| 2026-05-06 23:08 | 42.59935 | -70.89402 | 2989 ft | 162 kts | 197° |
| 2026-05-06 23:09 | 42.58860 | -70.89746 | 3003 ft | 155 kts | 202° |
| 2026-05-06 23:09 | 42.57864 | -70.90182 | 2971 ft | 148 kts | 205° |
| 2026-05-06 23:09 | 42.56888 | -70.90642 | 2982 ft | 149 kts | 205° |
| 2026-05-06 23:09 | 42.55901 | -70.91117 | 2989 ft | 153 kts | 205° |
| 2026-05-06 23:10 | 42.54886 | -70.91605 | 2992 ft | 154 kts | 205° |
| 2026-05-06 23:10 | 42.53875 | -70.92088 | 2989 ft | 154 kts | 206° |
| 2026-05-06 23:10 | 42.52856 | -70.92580 | 2990 ft | 154 kts | 205° |
| 2026-05-06 23:10 | 42.51850 | -70.93065 | 2977 ft | 153 kts | 206° |
| 2026-05-06 23:11 | 42.50852 | -70.93549 | 2805 ft | 152 kts | 205° |
| 2026-05-06 23:11 | 42.49849 | -70.94035 | 2603 ft | 152 kts | 205° |
| 2026-05-06 23:11 | 42.48853 | -70.94518 | 2399 ft | 152 kts | 204° |
| 2026-05-06 23:11 | 42.47867 | -70.94996 | 2200 ft | 151 kts | 203° |
| 2026-05-06 23:12 | 42.46881 | -70.95476 | 1997 ft | 151 kts | 202° |
| 2026-05-06 23:12 | 42.45909 | -70.95946 | 1780 ft | 139 kts | 201° |